• Join FlightAware (Why Join?)
  • Login
  • US Flag 
05:50PM EDT


 

Airport Tracker/Info


-or-


 

Live Flight TrackerFlight Track Log ✈ UAL118 ✈ 16-May-2013 ✈ EDDF / FRA - KEWR

Flight Track Log - Related Links

Times and Time Zones

All times are in EDT time to prevent confusion due to time zone crossing. See the UAL118 flight status page for this flight to view local times or setup timezone preferences in your user account.

Time Position Orientation Groundspeed Altitude Reporting Facility
EDT Latitude Longitude Course Direction KTS MPH feet Rate Location/Type
03:00AM 50.0320 8.5680 73° East 183 211 1,000  Level FlightAware
03:00AM 50.0370 8.5860 67° East 178 205 1,800 2,820 Climbing FlightAware
03:01AM 50.0440 8.6160 70° East 173 199 2,900 2,460 Climbing FlightAware
03:01AM 50.0510 8.6510 73° East 174 200 4,100 1,980 Climbing FlightAware
03:01AM 50.0550 8.6690 71° East 187 215 4,400 1,200 Climbing FlightAware
03:02AM 50.0640 8.7050 69° East 222 255 4,900 1,020 Climbing FlightAware
03:02AM 50.0750 8.7200 41° Northeast 247 284 5,100 1,380 Climbing FlightAware
03:02AM 50.0940 8.7300 19° North 265 305 5,600 1,920 Climbing FlightAware
03:03AM 50.1210 8.7430 17° North 276 318 6,400 1,500 Climbing FlightAware
03:03AM 50.1580 8.7670 23° Northeast 285 328 7,000 780 Climbing FlightAware
03:04AM 50.1790 8.7730 10° North 292 336 7,000  Level FlightAware
03:04AM 50.2070 8.7570 340° North 295 339 7,000  Level FlightAware
03:04AM 50.2230 8.7300 313° West 295 339 7,000 900 Level FlightAware
03:05AM 50.2470 8.6780 306° West 308 354 7,700 1,620 Climbing FlightAware
03:05AM 50.2660 8.6330 303° West 322 371 8,500 2,220 Climbing FlightAware
03:05AM 50.2790 8.5980 300° West 325 374 9,200 2,100 Climbing FlightAware
03:06AM 50.3130 8.5090 301° West 348 400 10,600 1,920 Climbing FlightAware
03:07AM 50.3480 8.4180 301° West 366 421 12,000 2,400 Climbing FlightAware
03:07AM 50.3700 8.3200 289° West 358 412 13,800 2,220 Climbing FlightAware
03:09AM 50.3650 8.0570 268° West 369 425 17,200 1,920 Climbing FlightAware
03:10AM 50.3620 7.9170 268° West 374 430 18,900 1,920 Climbing FlightAware
03:11AM 50.3840 7.8100 288° West 392 451 20,300 1,800 Climbing FlightAware
03:11AM 50.4000 7.7820 312° West 404 465 20,600 1,260 Climbing FlightAware
03:12AM 50.4680 7.6890 319° Northwest 420 483 21,600 1,440 Climbing FlightAware
03:12AM 50.5270 7.6110 320° Northwest 427 491 22,700 1,560 Climbing FlightAware
03:13AM 50.5870 7.5300 319° Northwest 428 493 23,700 1,380 Climbing FlightAware
03:14AM 50.6580 7.4320 319° Northwest 443 510 24,700 1,320 Climbing FlightAware
03:14AM 50.7240 7.3440 320° Northwest 452 520 25,600 1,200 Climbing FlightAware
03:15AM 50.7930 7.2630 323° Northwest 457 526 26,400 1,080 Climbing FlightAware
03:16AM 50.8530 7.1620 313° West 454 522 27,200 1,200 Climbing FlightAware
03:17AM 50.9160 7.0090 303° West 453 521 28,300 1,080 Climbing FlightAware
03:18AM 50.9640 6.8890 302° West 461 531 29,000 900 Climbing FlightAware
03:18AM 51.0080 6.7790 302° West 463 533 29,600 960 Climbing FlightAware
03:19AM 51.0540 6.6610 302° West 469 540 30,300 1,020 Climbing FlightAware
03:20AM 51.1070 6.5280 302° West 472 543 31,100 1,260 Climbing FlightAware
03:20AM 51.1550 6.4070 302° West 467 537 32,100 1,380 Climbing FlightAware
03:21AM 51.2000 6.2910 302° West 466 536 33,000 1,320 Climbing FlightAware
03:22AM 51.2500 6.1640 302° West 460 529 34,000 660 Climbing FlightAware
03:22AM 51.2970 6.0440 302° West 455 524 34,000  Level FlightAware
03:23AM 51.3480 5.9180 303° West 455 524 34,000  Level FlightAware
03:24AM 51.3940 5.8020 302° West 457 526 34,000  Level FlightAware
03:24AM 51.4390 5.6880 302° West 465 535 34,000  Level FlightAware
03:25AM 51.4980 5.5640 307° West 478 550 34,000  Level FlightAware
03:26AM 51.5600 5.4550 312° West 479 551 34,000 -1,320 Level FlightAware
03:26AM 51.6114 5.3832 312° West 454 522 32,500  Descending FlightAware UK
03:27AM 51.6320 5.3320 312° West 484 557 34,000 1,560 Climbing FlightAware
03:27AM 51.6930 5.2260 313° West 485 558 34,000 -1,620 Level FlightAware
03:28AM 51.7235 5.1967 313° West 454 522 32,500  Descending FlightAware UK
03:28AM 51.7540 5.1200 313° West 484 557 34,000  Climbing FlightAware
03:29AM 51.8253 5.0246 313° West 452 520 32,500  Descending FlightAware UK
03:29AM 51.8250 4.9980 313° West 483 556 34,000  Climbing FlightAware
03:29AM 51.8799 4.9297 313° West 450 518 32,500  Descending FlightAware UK
03:29AM 51.8830 4.8980 313° West 482 555 34,000  Climbing FlightAware
03:30AM 51.9257 4.8511 313° West 448 516 32,500  Descending FlightAware UK
03:30AM 51.9520 4.7770 313° West 480 552 34,000  Climbing FlightAware
03:30AM 51.9893 4.7409 313° West 446 513 32,500 -2,400 Descending FlightAware UK
03:31AM 52.0154 4.6926 311° West 446 513 32,500 4,500 Level FlightAware UK
03:31AM 52.0120 4.6710 311° West 479 551 34,000  Climbing FlightAware
03:31AM 52.0604 4.6138 311° West 444 511 32,500  Descending FlightAware UK
03:31AM 52.0730 4.5650 311° West 477 549 34,000  Climbing FlightAware
03:32AM 52.1057 4.5354 311° West 444 511 32,500  Descending FlightAware UK
03:32AM 52.1320 4.4610 311° West 477 549 34,000  Climbing FlightAware
03:33AM 52.1928 4.3764 311° West 442 509 32,500  Descending FlightAware UK
03:33AM 52.1900 4.3570 311° West 477 549 34,000  Climbing FlightAware
03:33AM 52.2285 4.3132 311° West 440 506 32,500  Descending FlightAware UK
03:34AM 52.2550 4.2410 311° West 477 549 34,000 1,200 Climbing FlightAware
03:34AM 52.3310 4.1040 312° West 479 551 34,000  Level FlightAware
03:35AM 52.3930 3.9930 312° West 480 552 34,000 -1,560 Level FlightAware
03:35AM 52.4231 3.9609 312° West 446 513 32,500  Descending FlightAware UK
03:36AM 52.4520 3.8850 312° West 480 552 34,000  Climbing FlightAware
03:36AM 52.4946 3.8315 312° West 446 513 32,500  Descending FlightAware UK
03:36AM 52.5160 3.7700 312° West 480 552 34,000  Climbing FlightAware
03:37AM 52.5480 3.7342 312° West 448 516 32,500 -2,580 Descending FlightAware UK
03:37AM 52.5745 3.6853 312° West 448 516 32,500 3,900 Level FlightAware UK
03:37AM 52.5770 3.6580 312° West 481 554 34,000  Climbing FlightAware
03:38AM 52.6280 3.5873 312° West 450 518 32,500  Descending FlightAware UK
03:38AM 52.6450 3.5320 312° West 481 554 34,000  Climbing FlightAware
03:38AM 52.6723 3.5054 312° West 452 520 32,500  Descending FlightAware UK
03:39AM 52.7020 3.4280 312° West 480 552 34,000  Climbing FlightAware
03:39AM 52.7340 3.3912 312° West 454 522 32,500 -2,520 Descending FlightAware UK
03:39AM 52.7606 3.3421 312° West 452 520 32,500 2,760 Level FlightAware UK
03:39AM 52.7730 3.2960 312° West 479 551 34,000 1,380 Climbing FlightAware
03:40AM 52.8510 3.1520 312° West 479 551 34,000 -1,200 Level FlightAware
03:41AM 52.8920 3.0953 312° West 450 518 32,500  Descending FlightAware UK
03:41AM 52.9020 3.0510 312° West 476 548 34,000 1,620 Climbing FlightAware
03:42AM 52.9480 2.9170 300° West 451 519 34,000 -1,320 Level FlightAware
03:42AM 52.9674 2.8338 300° West 448 516 32,500  Descending FlightAware UK
03:42AM 52.9740 2.7880 300° West 441 507 34,000  Climbing FlightAware
03:43AM 52.9929 2.6989 300° West 444 511 32,500  Descending FlightAware UK
03:43AM 52.9940 2.6750 300° West 441 507 34,000  Climbing FlightAware
03:43AM 53.0035 2.6411 300° West 444 511 32,500 -2,040 Descending FlightAware UK
03:44AM 53.0209 2.5436 286° West 446 513 32,500 2,220 Level FlightAware UK
03:44AM 53.0250 2.5040 286° West 443 510 34,000  Climbing FlightAware
03:44AM 53.0379 2.4456 286° West 448 516 32,500  Descending FlightAware UK
03:44AM 53.0500 2.3630 286° West 444 511 34,000  Climbing FlightAware
03:45AM 53.0588 2.3277 286° West 452 520 32,500 -2,700 Descending FlightAware UK
03:45AM 53.0691 2.2686 286° West 450 518 32,500 4,680 Level FlightAware UK
03:45AM 53.0690 2.2560 286° West 445 512 34,000  Climbing FlightAware
03:45AM 53.0862 2.1701 286° West 450 518 32,500  Descending FlightAware UK
03:46AM 53.0950 2.1030 286° West 445 512 34,000 1,560 Climbing FlightAware
03:46AM 53.1180 1.9750 287° West 446 513 34,000 -1,620 Level FlightAware
03:47AM 53.1274 1.9323 287° West 454 522 32,500  Descending FlightAware UK
03:47AM 53.1386 1.8529 287° West 446 513 34,000  Climbing FlightAware ADS-B
03:47AM 53.1477 1.8141 287° West 454 522 32,500  Descending FlightAware UK
03:47AM 53.1563 1.7497 287° West 446 513 34,000  Climbing FlightAware ADS-B
03:48AM 53.1678 1.6959 287° West 450 518 32,500  Descending FlightAware UK
03:48AM 53.1779 1.6211 287° West 446 513 34,000  Climbing FlightAware ADS-B
03:48AM 53.1879 1.5768 287° West 444 511 32,500  Descending FlightAware UK
03:49AM 53.1930 1.5300 287° West 447 514 34,000 4,680 Climbing FlightAware
03:49AM 53.1996 1.4924 286° West 447 514 34,000 -3,000 Level FlightAware ADS-B
03:49AM 53.2111 1.4379 286° West 448 516 32,500  Descending FlightAware UK
03:49AM 53.2173 1.3860 286° West 449 517 34,000  Climbing FlightAware ADS-B
03:50AM 53.2245 1.3572 286° West 452 520 32,500  Descending FlightAware UK
03:50AM 53.2355 1.2768 286° West 450 518 34,000 1,800 Climbing FlightAware ADS-B
03:50AM 53.2523 1.1740 285° West 450 518 34,000 -1,740 Level FlightAware ADS-B
03:51AM 53.2645 1.1168 285° West 460 529 32,500 -2,280 Descending FlightAware UK
03:51AM 53.2744 1.0564 285° West 458 527 32,500  Level FlightAware UK
03:51AM 53.2843 0.9959 285° West 458 527 32,500 4,260 Level FlightAware UK
03:51AM 53.2840 0.9810 285° West 450 518 34,000 6,000 Climbing FlightAware
03:52AM 53.2921 0.9292 285° West 451 519 34,000 -2,760 Level FlightAware ADS-B
03:52AM 53.3039 0.8755 285° West 458 527 32,500  Descending FlightAware UK
03:52AM 53.3070 0.8350 285° West 450 518 34,000  Climbing FlightAware
03:53AM 53.3268 0.7341 285° West 456 525 32,500  Descending FlightAware UK
03:53AM 53.3300 0.6940 285° West 450 518 34,000 4,500 Climbing FlightAware
03:53AM 53.3367 0.6509 285° West 451 519 34,000 -2,820 Level FlightAware ADS-B
03:53AM 53.3492 0.5930 285° West 458 527 32,500  Descending FlightAware UK
03:53AM 53.3534 0.5454 285° West 451 519 34,000 2,160 Climbing FlightAware ADS-B
03:54AM 53.3697 0.4404 285° West 451 519 34,000 -1,800 Level FlightAware ADS-B
03:54AM 53.3812 0.3904 285° West 454 522 32,500  Descending FlightAware UK
03:55AM 53.3858 0.3374 285° West 451 519 34,000  Climbing FlightAware ADS-B
03:55AM 53.3969 0.2897 285° West 458 527 32,500  Descending FlightAware UK
03:55AM 53.4018 0.2343 285° West 451 519 34,000  Climbing FlightAware ADS-B
03:55AM 53.4129 0.1880 285° West 458 527 32,500  Descending FlightAware UK
03:56AM 53.4185 0.1265 285° West 451 519 34,000 1,920 Climbing FlightAware ADS-B
03:56AM 53.4348 0.0199 284° West 451 519 34,000 -1,740 Level FlightAware ADS-B
03:56AM 53.4472 -0.0353 284° West 452 520 32,500  Descending FlightAware UK
03:57AM 53.4509 -0.0862 284° West 451 519 34,000  Climbing FlightAware ADS-B
03:57AM 53.4660 -0.1572 284° West 448 516 32,500  Descending FlightAware UK
03:57AM 53.4677 -0.1986 284° West 452 520 34,000 1,380 Climbing FlightAware ADS-B
03:58AM 53.4957 -0.3864 284° West 454 522 34,000 -1,200 Level FlightAware ADS-B
03:58AM 53.5090 -0.4438 284° West 452 520 32,500 -2,400 Descending FlightAware UK
03:59AM 53.5181 -0.5060 284° West 454 522 32,500 2,220 Level FlightAware UK
03:59AM 53.5256 -0.5893 284° West 456 525 34,000  Climbing FlightAware ADS-B
03:59AM 53.5396 -0.6501 284° West 460 529 32,500  Descending FlightAware UK
04:00AM 53.5407 -0.6932 284° West 457 526 34,000 2,100 Climbing FlightAware ADS-B
04:00AM 53.5566 -0.8027 284° West 458 527 34,000  Level FlightAware ADS-B
04:01AM 53.5723 -0.9124 284° West 458 527 34,000 -1,920 Level FlightAware ADS-B
04:01AM 53.5850 -0.9613 284° West 464 534 32,500  Descending FlightAware UK
04:01AM 53.5874 -1.0180 284° West 457 526 34,000 1,500 Climbing FlightAware ADS-B
04:02AM 53.6080 -1.1650 283° West 458 527 34,000  Level FlightAware
04:02AM 53.6155 -1.2183 283° West 458 527 34,000 -2,400 Level FlightAware ADS-B
04:03AM 53.6323 -1.2939 283° West 460 529 32,500  Descending FlightAware UK
04:03AM 53.6306 -1.3270 283° West 458 527 34,000  Climbing FlightAware ADS-B
04:03AM 53.6441 -1.3773 283° West 462 532 32,500  Descending FlightAware UK
04:03AM 53.6480 -1.4490 283° West 457 526 34,000 1,620 Climbing FlightAware
04:04AM 53.6650 -1.5752 283° West 458 527 34,000 -1,860 Level FlightAware ADS-B
04:04AM 53.6788 -1.6275 283° West 460 529 32,500  Descending FlightAware UK
04:04AM 53.6800 -1.6862 283° West 458 527 34,000  Climbing FlightAware ADS-B
04:05AM 53.6960 -1.7523 283° West 460 529 32,500  Descending FlightAware UK
04:05AM 53.6972 -1.8136 283° West 459 528 34,000  Climbing FlightAware ADS-B
04:05AM 53.7132 -1.8783 283° West 460 529 32,500  Descending FlightAware UK
04:06AM 53.7137 -1.9363 283° West 459 528 34,000  Climbing FlightAware ADS-B
04:06AM 53.7471 -2.1301 283° West 458 527 32,500  Descending FlightAware UK
04:07AM 53.7450 -2.1770 283° West 460 529 34,000  Climbing FlightAware
04:07AM 53.7722 -2.3193 283° West 462 532 32,500  Descending FlightAware UK
04:07AM 53.7650 -2.3230 283° West 461 531 34,000  Climbing FlightAware
04:08AM 53.7888 -2.4462 283° West 458 527 32,500  Descending FlightAware UK
04:08AM 53.7820 -2.4590 283° West 461 531 34,000  Climbing FlightAware
04:08AM 53.7999 -2.5309 283° West 456 525 32,500 -2,700 Descending FlightAware UK
04:09AM 53.8082 -2.5945 282° West 458 527 32,500 3,060 Level FlightAware UK
04:09AM 53.8040 -2.6280 282° West 463 533 34,000 1,740 Climbing FlightAware
04:10AM 53.8220 -2.7700 282° West 463 533 34,000 -1,680 Level FlightAware
04:10AM 53.8382 -2.8277 282° West 460 529 32,500 -2,340 Descending FlightAware UK
04:10AM 53.8489 -2.9130 282° West 462 532 32,500 3,000 Level FlightAware UK
04:10AM 53.8420 -2.9330 282° West 463 533 34,000  Climbing FlightAware
04:11AM 53.8622 -3.0198 282° West 464 534 32,500  Descending FlightAware UK
04:11AM 53.8560 -3.0450 282° West 464 534 34,000 1,560 Climbing FlightAware
04:12AM 53.8770 -3.2090 282° West 466 536 34,000 -1,500 Level FlightAware
04:12AM 53.8997 -3.2735 282° West 464 534 32,500 -2,700 Descending FlightAware UK
04:12AM 53.9126 -3.3356 289° West 464 534 32,500 3,060 Level FlightAware UK
04:12AM 53.9080 -3.3620 289° West 466 536 34,000  Climbing FlightAware
04:13AM 53.9333 -3.4390 289° West 464 534 32,500 -2,520 Descending FlightAware UK
04:13AM 53.9453 -3.5016 288° West 466 536 32,500 4,080 Level FlightAware UK
04:13AM 53.9340 -3.4980 288° West 466 536 34,000  Climbing FlightAware
04:13AM 53.9609 -3.5854 288° West 464 534 32,500 -2,400 Descending FlightAware UK
04:14AM 53.9721 -3.6476 287° West 464 534 32,500 3,600 Level FlightAware UK
04:14AM 53.9630 -3.6540 287° West 465 535 34,000  Climbing FlightAware
04:14AM 53.9947 -3.7735 287° West 464 534 32,500  Descending FlightAware UK
04:14AM 53.9860 -3.7850 287° West 464 534 34,000  Climbing FlightAware
04:15AM 54.0135 -3.8782 287° West 466 536 32,500  Descending FlightAware UK
04:15AM 54.0180 -3.9560 287° West 463 533 34,000  Climbing FlightAware
04:15AM 54.0412 -4.0237 287° West 462 532 32,500  Descending FlightAware UK
04:16AM 54.0440 -4.0950 287° West 462 532 34,000  Climbing FlightAware
04:16AM 54.0688 -4.1687 287° West 462 532 32,500  Descending FlightAware UK
04:17AM 54.0700 -4.2340 287° West 460 529 34,000 1,320 Climbing FlightAware
04:17AM 54.0980 -4.3870 287° West 459 528 34,000  Level FlightAware
04:18AM 54.1230 -4.5240 287° West 459 528 34,000 -1,560 Level FlightAware
04:18AM 54.1492 -4.6025 287° West 456 525 32,500  Descending FlightAware UK
04:19AM 54.1490 -4.6640 287° West 459 528 34,000  Climbing FlightAware
04:19AM 54.1757 -4.7474 287° West 454 522 32,500  Descending FlightAware UK
04:19AM 54.1780 -4.8220 287° West 459 528 34,000  Climbing FlightAware
04:20AM 54.2021 -4.8926 287° West 454 522 32,500  Descending FlightAware UK
04:20AM 54.2000 -4.9450 287° West 459 528 34,000  Climbing FlightAware
04:20AM 54.2284 -5.0377 287° West 462 532 32,500 -2,400 Descending FlightAware UK
04:21AM 54.2395 -5.0999 287° West 460 529 32,500 3,600 Level FlightAware UK
04:21AM 54.2290 -5.1080 287° West 458 527 34,000  Climbing FlightAware
04:21AM 54.2542 -5.1830 287° West 464 534 32,500  Descending FlightAware UK
04:21AM 54.2540 -5.2500 287° West 458 527 34,000  Climbing FlightAware
04:22AM 54.2799 -5.3281 287° West 462 532 32,500 -2,460 Descending FlightAware UK
04:22AM 54.2908 -5.3896 287° West 462 532 32,500 3,420 Level FlightAware UK
04:22AM 54.2810 -5.4020 287° West 457 526 34,000  Climbing FlightAware
04:22AM 54.3054 -5.4724 287° West 460 529 32,500  Descending FlightAware UK
04:23AM 54.3060 -5.5470 287° West 456 525 34,000  Climbing FlightAware
04:23AM 54.3306 -5.6173 287° West 462 532 32,500 -2,520 Descending FlightAware UK
04:23AM 54.3414 -5.6792 287° West 460 529 32,500 4,080 Level FlightAware UK
04:24AM 54.3300 -5.6850 287° West 455 524 34,000  Climbing FlightAware
04:24AM 54.3556 -5.7618 287° West 460 529 32,500 -2,400 Descending FlightAware UK
04:24AM 54.3663 -5.8238 286° West 458 527 32,500 3,600 Level FlightAware UK
04:24AM 54.3550 -5.8300 286° West 454 522 34,000  Climbing FlightAware
04:25AM 54.3805 -5.9062 286° West 460 529 32,500  Descending FlightAware UK
04:25AM 54.3790 -5.9680 286° West 454 522 34,000  Climbing FlightAware
04:25AM 54.4053 -6.0506 286° West 458 527 32,500 -2,460 Descending FlightAware UK
04:26AM 54.4157 -6.1125 286° West 460 529 32,500 3,420 Level FlightAware UK
04:26AM 54.4050 -6.1270 286° West 452 520 34,000  Climbing FlightAware
04:26AM 54.4293 -6.1942 286° West 456 525 32,500 -2,700 Descending FlightAware UK
04:26AM 54.4397 -6.2559 286° West 458 527 32,500 3,720 Level FlightAware UK
04:26AM 54.4290 -6.2650 286° West 452 520 34,000  Climbing FlightAware
04:27AM 54.4535 -6.3380 286° West 456 525 32,500 -2,520 Descending FlightAware UK
04:27AM 54.4636 -6.3998 286° West 456 525 32,500 4,080 Level FlightAware UK
04:27AM 54.4520 -6.4050 286° West 452 520 34,000  Climbing FlightAware
04:27AM 54.4772 -6.4821 286° West 458 527 32,500 -2,400 Descending FlightAware UK
04:28AM 54.4875 -6.5439 286° West 458 527 32,500 3,600 Level FlightAware UK
04:28AM 54.4770 -6.5560 286° West 452 520 34,000  Climbing FlightAware
04:28AM 54.5011 -6.6263 286° West 458 527 32,500 -2,580 Descending FlightAware UK
04:28AM 54.5112 -6.6883 286° West 458 527 32,500 3,900 Level FlightAware UK
04:28AM 54.5000 -6.6950 286° West 451 519 34,000  Climbing FlightAware
04:29AM 54.5245 -6.7709 286° West 454 522 32,500 -2,460 Descending FlightAware UK
04:29AM 54.5345 -6.8329 286° West 458 527 32,500 4,260 Level FlightAware UK
04:29AM 54.5220 -6.8320 286° West 452 520 34,000  Climbing FlightAware
04:29AM 54.5445 -6.8951 286° West 456 525 32,500 -2,760 Descending FlightAware UK
04:30AM 54.5545 -6.9572 286° West 454 522 32,500 3,000 Level FlightAware UK
04:30AM 54.5490 -6.9950 286° West 453 521 34,000  Climbing FlightAware
04:30AM 54.5711 -7.0610 286° West 456 525 32,500  Descending FlightAware UK
04:30AM 54.5670 -7.1050 285° West 455 524 34,000  Climbing FlightAware
04:30AM 54.5811 -7.1234 285° West 456 525 32,500 -4,740 Descending FlightAware UK
04:31AM 54.5912 -7.1859 285° West 458 527 32,500  Level FlightAware UK
04:31AM 54.6010 -7.2485 285° West 462 532 32,500 2,880 Level FlightAware UK
04:31AM 54.5950 -7.2830 285° West 454 522 34,000  Climbing FlightAware
04:32AM 54.6239 -7.3942 285° West 460 529 32,500  Descending FlightAware UK
04:32AM 54.6170 -7.4230 285° West 453 521 34,000  Climbing FlightAware
04:32AM 54.6401 -7.4988 285° West 462 532 32,500 -2,520 Descending FlightAware UK
04:33AM 54.6499 -7.5616 285° West 462 532 32,500 4,080 Level FlightAware UK
04:33AM 54.6390 -7.5640 285° West 455 524 34,000  Climbing FlightAware
04:33AM 54.6628 -7.6454 285° West 460 529 32,500 -2,400 Descending FlightAware UK
04:33AM 54.6726 -7.7081 285° West 460 529 32,500 3,600 Level FlightAware UK
04:33AM 54.6630 -7.7190 285° West 456 525 34,000  Climbing FlightAware
04:34AM 54.6855 -7.7920 285° West 462 532 32,500 -2,580 Descending FlightAware UK
04:34AM 54.6950 -7.8549 285° West 462 532 32,500 4,980 Level FlightAware UK
04:34AM 54.6820 -7.8380 285° West 456 525 34,000  Climbing FlightAware
04:34AM 54.7046 -7.9180 285° West 462 532 32,500 -2,520 Descending FlightAware UK
04:35AM 54.7142 -7.9809 285° West 462 532 32,500 2,760 Level FlightAware UK
04:35AM 54.7090 -8.0180 285° West 456 525 34,000  Climbing FlightAware
04:35AM 54.7300 -8.0860 285° West 460 529 32,500 -2,700 Descending FlightAware UK
04:35AM 54.7392 -8.1490 284° West 462 532 32,500 3,720 Level FlightAware UK
04:35AM 54.7300 -8.1580 284° West 455 524 34,000  Climbing FlightAware
04:36AM 54.7518 -8.2329 284° West 464 534 32,500 -2,520 Descending FlightAware UK
04:36AM 54.7612 -8.2959 285° West 464 534 32,500 3,300 Level FlightAware UK
04:36AM 54.7540 -8.3160 285° West 455 524 34,000  Climbing FlightAware
04:36AM 54.7736 -8.3799 285° West 464 534 32,500 -2,760 Descending FlightAware UK
04:37AM 54.7830 -8.4429 284° West 464 534 32,500 3,600 Level FlightAware UK
04:37AM 54.7750 -8.4560 284° West 455 524 34,000  Climbing FlightAware
04:37AM 54.7953 -8.5270 284° West 464 534 32,500 -2,580 Descending FlightAware UK
04:37AM 54.7997 -8.5911 277° West 462 532 32,500 3,900 Level FlightAware UK
04:38AM 54.7920 -8.6020 277° West 452 520 34,000  Climbing FlightAware
04:38AM 54.8063 -8.6764 277° West 462 532 32,500 -1,980 Descending FlightAware UK
04:38AM 54.8106 -8.7408 277° West 460 529 32,800 4,380 Climbing FlightAware UK
04:38AM 54.8030 -8.7610 277° West 452 520 34,400 480 Climbing FlightAware
04:39AM 54.8166 -8.8266 277° West 462 532 33,000 -1,980 Descending FlightAware UK
04:39AM 54.8214 -8.8914 277° West 464 534 33,300 4,740 Climbing FlightAware UK
04:39AM 54.8140 -8.9080 277° West 457 526 34,900 720 Climbing FlightAware
04:39AM 54.8253 -8.9788 277° West 466 536 33,600 720 Descending FlightAware UK
04:40AM 54.8210 -9.0510 277° West 458 527 35,400 2,100 Climbing FlightAware
04:40AM 54.8300 -9.2160 275° West 450 518 36,000 420 Climbing FlightAware
04:41AM 54.8380 -9.3590 276° West 444 511 36,000  Level FlightAware
04:42AM 54.8460 -9.4980 276° West 443 510 36,000  Level FlightAware
04:42AM 54.8540 -9.6610 275° West 446 513 36,000  Level FlightAware
04:43AM 54.8610 -9.7990 275° West 447 514 36,000  Level FlightAware
04:44AM 54.8690 -9.9640 275° West 448 516 36,000  Level FlightAware
04:45AM 54.8760 -10.1060 275° West 449 517 36,000  Level FlightAware
04:45AM 54.8830 -10.2480 275° West 449 517 36,000  Level FlightAware
04:46AM 54.8900 -10.3950 275° West 449 517 36,000  Level FlightAware
04:47AM 54.8960 -10.5510 274° West 450 518 36,000  Level FlightAware
04:47AM 54.9030 -10.6960 275° West 450 518 36,000  Level FlightAware
04:48AM 54.9100 -10.8660 274° West 450 518 36,000  Level FlightAware
04:49AM 54.9170 -11.0440 274° West 450 518 36,000  Level FlightAware
04:50AM 54.9240 -11.2210 274° West 448 516 36,000  Level FlightAware
04:50AM 54.9290 -11.3570 274° West 447 514 36,000  Level FlightAware
04:51AM 54.9350 -11.5210 274° West 447 514 36,000  Level FlightAware
04:52AM 54.9400 -11.6650 274° West 446 513 36,000  Level FlightAware
04:52AM 54.9450 -11.8060 274° West 445 512 36,000  Level FlightAware
04:53AM 54.9490 -11.9460 273° West 444 511 36,000  Level FlightAware
04:54AM 54.9540 -12.0960 273° West 443 510 36,000  Level FlightAware
04:54AM 54.9580 -12.2330 273° West 442 509 36,000  Level FlightAware
04:55AM 54.9630 -12.4130 273° West 441 507 36,000  Level FlightAware
04:56AM 54.9670 -12.5540 273° West 440 506 36,000  Level FlightAware
04:57AM 54.9710 -12.7100 273° West 440 506 36,000  Level FlightAware
04:57AM 54.9740 -12.8500 272° West 441 507 36,000  Level FlightAware
04:58AM 54.9780 -12.9910 273° West 441 507 36,000  Level FlightAware
04:59AM 54.9840 -13.2860 272° West 440 506 36,000  Level FlightAware
05:00AM 54.9870 -13.4140 272° West 440 506 36,000  Level FlightAware
05:01AM 54.9870 -13.5470 270° West 440 506 36,000  Level FlightAware
05:01AM 54.9870 -13.6680 270° West 440 506 36,000  Level FlightAware
05:02AM 54.9870 -13.8180 270° West 440 506 36,000  Level FlightAware
05:03AM 54.9870 -13.9390 270° West 440 506 36,000  Level FlightAware
05:04AM 54.9870 -14.0600 270° West 440 506 36,000  Level FlightAware
05:04AM 54.9870 -14.1800 270° West 440 506 36,000  Level FlightAware
05:05AM 54.9870 -14.3310 270° West 440 506 36,000  Level FlightAware
05:06AM 54.9870 -14.4520 270° West 440 506 36,000  Level FlightAware
05:06AM 54.9870 -14.5720 270° West 440 506 36,000  Level FlightAware
05:07AM 54.9870 -14.6930 270° West 440 506 36,000  Level FlightAware
05:08AM 54.9870 -14.8140 270° West 440 506 36,000  Level FlightAware
05:09AM 54.9870 -14.9640 270° West 440 506 36,000  Level FlightAware
05:09AM 54.9870 -15.0850 270° West 440 506 36,000  Level FlightAware
05:10AM 54.9870 -15.2060 270° West 440 506 36,000  Level FlightAware
05:13AM 55.0097 -15.7044 275° West  Level Estimated
05:14AM 55.0180 -15.9000 274° West  Level Estimated
05:15AM 55.0261 -16.0957 274° West  Level Estimated
05:16AM 55.0338 -16.2914 274° West  Level Estimated
05:17AM 55.0412 -16.4872 274° West  Level Estimated
05:18AM 55.0483 -16.6831 274° West  Level Estimated
05:19AM 55.0550 -16.8791 274° West  Level Estimated
05:20AM 55.0615 -17.0751 273° West  Level Estimated
05:21AM 55.0676 -17.2712 273° West  Level Estimated
05:22AM 55.0735 -17.4674 273° West  Level Estimated
05:23AM 55.0697 -17.6635 268° West  Level FlightAware Approximate
05:24AM 55.0656 -17.8596 268° West  Level FlightAware Approximate
05:25AM 55.0611 -18.0557 268° West  Level FlightAware Approximate
05:26AM 55.0564 -18.2517 268° West  Level FlightAware Approximate
05:27AM 55.0513 -18.4477 267° West  Level FlightAware Approximate
05:28AM 55.0459 -18.6436 267° West  Level FlightAware Approximate
05:29AM 55.0402 -18.8394 267° West  Level FlightAware Approximate
05:30AM 55.0342 -19.0352 267° West  Level FlightAware Approximate
05:31AM 55.0279 -19.2310 267° West  Level FlightAware Approximate
05:32AM 55.0213 -19.4266 267° West  Level FlightAware Approximate
05:33AM 55.0143 -19.6223 267° West  Level FlightAware Approximate
05:33AM 55.0000 -20.0000 274° West 389 448 36,000  Level ETMS Enhanced Traffic Management System
05:34AM 55.0070 -19.8178 266° West  Level FlightAware Approximate
05:35AM 55.0005 -20.0126 274° West  Level FlightAware Approximate
05:36AM 55.0084 -20.2081 274° West  Level FlightAware Approximate
05:37AM 55.0159 -20.4036 274° West  Level FlightAware Approximate
05:38AM 55.0231 -20.5992 274° West  Level FlightAware Approximate
05:39AM 55.0411 -21.1294 273° West 389 448 36,000  Level FlightAware Transoceanic
05:40AM 55.0470 -21.3179 273° West 389 448 36,000  Level FlightAware Transoceanic
05:41AM 55.0525 -21.5064 273° West 389 448 36,000  Level FlightAware Transoceanic
05:42AM 55.0578 -21.6949 273° West 389 448 36,000  Level FlightAware Transoceanic
05:43AM 55.0628 -21.8835 273° West 389 448 36,000  Level FlightAware Transoceanic
05:44AM 55.0674 -22.0722 272° West 389 448 36,000  Level FlightAware Transoceanic
05:45AM 55.0718 -22.2609 272° West 389 448 36,000  Level FlightAware Transoceanic
05:46AM 55.0759 -22.4496 272° West 389 448 36,000  Level FlightAware Transoceanic
05:47AM 55.0797 -22.6384 272° West 389 448 36,000  Level FlightAware Transoceanic
05:48AM 55.0832 -22.8272 272° West 389 448 36,000  Level FlightAware Transoceanic
05:49AM 55.0864 -23.0160 272° West 389 448 36,000  Level FlightAware Transoceanic
05:50AM 55.0894 -23.2049 271° West 389 448 36,000  Level FlightAware Transoceanic
05:51AM 55.0920 -23.3938 271° West 389 448 36,000  Level FlightAware Transoceanic
05:52AM 55.0943 -23.5827 271° West 389 448 36,000  Level FlightAware Transoceanic
05:53AM 55.0964 -23.7716 271° West 389 448 36,000  Level FlightAware Transoceanic
05:54AM 55.0981 -23.9606 271° West 389 448 36,000  Level FlightAware Transoceanic
05:55AM 55.0996 -24.1495 271° West 389 448 36,000  Level FlightAware Transoceanic
05:56AM 55.1008 -24.3385 271° West 389 448 36,000  Level FlightAware Transoceanic
05:57AM 55.1017 -24.5275 270° West 389 448 36,000  Level FlightAware Transoceanic
05:58AM 55.1022 -24.7165 270° West 389 448 36,000  Level FlightAware Transoceanic
05:59AM 55.1025 -24.9055 270° West 389 448 36,000  Level FlightAware Transoceanic
06:00AM 55.1025 -25.0945 270° West 389 448 36,000  Level FlightAware Transoceanic
06:01AM 55.1022 -25.2835 270° West 389 448 36,000  Level FlightAware Transoceanic
06:02AM 55.1017 -25.4725 270° West 389 448 36,000  Level FlightAware Transoceanic
06:03AM 55.1008 -25.6615 269° West 389 448 36,000  Level FlightAware Transoceanic
06:04AM 55.0996 -25.8505 269° West 389 448 36,000  Level FlightAware Transoceanic
06:05AM 55.0981 -26.0394 269° West 389 448 36,000  Level FlightAware Transoceanic
06:06AM 55.0964 -26.2284 269° West 389 448 36,000  Level FlightAware Transoceanic
06:07AM 55.0943 -26.4173 269° West 389 448 36,000  Level FlightAware Transoceanic
06:08AM 55.0920 -26.6062 269° West 389 448 36,000  Level FlightAware Transoceanic
06:09AM 55.0894 -26.7951 269° West 389 448 36,000  Level FlightAware Transoceanic
06:10AM 55.0864 -26.9840 268° West 389 448 36,000  Level FlightAware Transoceanic
06:11AM 55.0832 -27.1728 268° West 389 448 36,000  Level FlightAware Transoceanic
06:12AM 55.0797 -27.3616 268° West 389 448 36,000  Level FlightAware Transoceanic
06:13AM 55.0759 -27.5504 268° West 389 448 36,000  Level FlightAware Transoceanic
06:14AM 55.0718 -27.7391 268° West 389 448 36,000  Level FlightAware Transoceanic
06:15AM 55.0674 -27.9278 268° West 389 448 36,000  Level FlightAware Transoceanic
06:16AM 55.0628 -28.1165 267° West 389 448 36,000  Level FlightAware Transoceanic
06:17AM 55.0578 -28.3051 267° West 389 448 36,000  Level FlightAware Transoceanic
06:18AM 55.0525 -28.4936 267° West 389 448 36,000  Level FlightAware Transoceanic
06:19AM 55.0470 -28.6821 267° West 389 448 36,000  Level FlightAware Transoceanic
06:20AM 55.0411 -28.8706 267° West 389 448 36,000  Level FlightAware Transoceanic
06:21AM 55.0350 -29.0590 267° West 389 448 36,000  Level FlightAware Transoceanic
06:22AM 55.0286 -29.2473 267° West 389 448 36,000  Level FlightAware Transoceanic
06:23AM 55.0219 -29.4356 266° West 389 448 36,000  Level FlightAware Transoceanic
06:24AM 55.0149 -29.6238 266° West 389 448 36,000  Level FlightAware Transoceanic
06:25AM 55.0076 -29.8119 266° West 389 448 36,000  Level FlightAware Transoceanic
06:26AM 54.9997 -30.0074 266° West  Level FlightAware Approximate
06:27AM 54.9991 -30.0147 264° West  Level FlightAware Approximate
06:28AM 54.9874 -30.2095 264° West  Level FlightAware Approximate
06:29AM 54.9754 -30.4042 264° West  Level FlightAware Approximate
06:30AM 54.9630 -30.5987 264° West  Level FlightAware Approximate
06:31AM 54.9503 -30.7932 264° West  Level FlightAware Approximate
06:32AM 54.9374 -30.9875 263° West  Level FlightAware Approximate
06:33AM 54.9241 -31.1817 263° West  Level FlightAware Approximate
06:34AM 54.9105 -31.3757 263° West  Level FlightAware Approximate
06:35AM 54.8966 -31.5697 263° West  Level FlightAware Approximate
06:36AM 54.8824 -31.7635 263° West  Level FlightAware Approximate
06:37AM 54.8679 -31.9571 263° West  Level FlightAware Approximate
06:38AM 54.8530 -32.1506 262° West  Level FlightAware Approximate
06:39AM 54.8379 -32.3440 262° West  Level FlightAware Approximate
06:40AM 54.8224 -32.5372 262° West  Level FlightAware Approximate
06:41AM 54.8067 -32.7303 262° West  Level FlightAware Approximate
06:42AM 54.7906 -32.9232 262° West  Level FlightAware Approximate
06:43AM 54.7743 -33.1160 262° West  Level FlightAware Approximate
06:44AM 54.7576 -33.3086 262° West  Level FlightAware Approximate
06:45AM 54.7406 -33.5010 261° West  Level FlightAware Approximate
06:46AM 54.7234 -33.6933 261° West  Level FlightAware Approximate
06:47AM 54.7058 -33.8854 261° West  Level FlightAware Approximate
06:48AM 54.6879 -34.0774 261° West  Level FlightAware Approximate
06:49AM 54.6697 -34.2692 261° West  Level FlightAware Approximate
06:50AM 54.6512 -34.4608 261° West  Level FlightAware Approximate
06:51AM 54.6324 -34.6522 260° West  Level FlightAware Approximate
06:52AM 54.6133 -34.8435 260° West  Level FlightAware Approximate
06:53AM 54.5939 -35.0346 260° West  Level FlightAware Approximate
06:54AM 54.5742 -35.2254 260° West  Level FlightAware Approximate
06:55AM 54.5542 -35.4162 260° West  Level FlightAware Approximate
06:56AM 54.5340 -35.6067 260° West  Level FlightAware Approximate
06:57AM 54.5135 -35.7971 260° West  Level FlightAware Approximate
06:58AM 54.4937 -35.9875 260° West  Level FlightAware Approximate
06:59AM 54.4735 -36.1778 260° West  Level FlightAware Approximate
07:00AM 54.4530 -36.3679 260° West  Level FlightAware Approximate
07:01AM 54.4323 -36.5578 259° West  Level FlightAware Approximate
07:02AM 54.4112 -36.7475 259° West  Level FlightAware Approximate
07:03AM 54.3899 -36.9370 259° West  Level FlightAware Approximate
07:04AM 54.3682 -37.1263 259° West  Level FlightAware Approximate
07:05AM 54.3463 -37.3154 259° West  Level FlightAware Approximate
07:06AM 54.3241 -37.5043 259° West  Level FlightAware Approximate
07:07AM 54.3015 -37.6930 259° West  Level FlightAware Approximate
07:08AM 54.2787 -37.8815 258° West  Level FlightAware Approximate
07:09AM 54.2556 -38.0698 258° West  Level FlightAware Approximate
07:10AM 54.2322 -38.2579 258° West  Level FlightAware Approximate
07:11AM 54.2085 -38.4457 258° West  Level FlightAware Approximate
07:12AM 54.1845 -38.6334 258° West  Level FlightAware Approximate
07:13AM 54.1602 -38.8208 258° West  Level FlightAware Approximate
07:14AM 54.1356 -39.0080 257° West  Level FlightAware Approximate
07:15AM 54.1107 -39.1950 257° West  Level FlightAware Approximate
07:16AM 54.0856 -39.3817 257° West  Level FlightAware Approximate
07:17AM 54.0601 -39.5682 257° West  Level FlightAware Approximate
07:18AM 54.0344 -39.7545 257° West  Level FlightAware Approximate
07:19AM 54.0084 -39.9406 257° West  Level FlightAware Approximate
07:20AM 53.9926 -40.1295 265° West  Level FlightAware Approximate
07:21AM 53.9815 -40.3196 264° West  Level FlightAware Approximate
07:22AM 53.9701 -40.5097 264° West  Level FlightAware Approximate
07:23AM 53.9584 -40.6996 264° West  Level FlightAware Approximate
07:24AM 53.9463 -40.8895 264° West  Level FlightAware Approximate
07:25AM 53.9340 -41.0792 264° West  Level FlightAware Approximate
07:26AM 53.9214 -41.2689 264° West  Level FlightAware Approximate
07:27AM 53.9085 -41.4584 263° West  Level FlightAware Approximate
07:28AM 53.8953 -41.6478 263° West  Level FlightAware Approximate
07:29AM 53.8818 -41.8370 263° West  Level FlightAware Approximate
07:30AM 53.8680 -42.0262 263° West  Level FlightAware Approximate
07:31AM 53.8539 -42.2152 263° West  Level FlightAware Approximate
07:32AM 53.8395 -42.4041 263° West  Level FlightAware Approximate
07:33AM 53.8248 -42.5929 263° West  Level FlightAware Approximate
07:34AM 53.8098 -42.7815 262° West  Level FlightAware Approximate
07:35AM 53.7945 -42.9700 262° West  Level FlightAware Approximate
07:36AM 53.7789 -43.1583 262° West  Level FlightAware Approximate
07:37AM 53.7630 -43.3465 262° West  Level FlightAware Approximate
07:38AM 53.7469 -43.5346 262° West  Level FlightAware Approximate
07:39AM 53.7304 -43.7225 262° West  Level FlightAware Approximate
07:40AM 53.7136 -43.9103 261° West  Level FlightAware Approximate
07:41AM 53.6966 -44.0979 261° West  Level FlightAware Approximate
07:42AM 53.6792 -44.2854 261° West  Level FlightAware Approximate
07:43AM 53.6616 -44.4727 261° West  Level FlightAware Approximate
07:44AM 53.6437 -44.6599 261° West  Level FlightAware Approximate
07:45AM 53.6254 -44.8469 261° West  Level FlightAware Approximate
07:46AM 53.6069 -45.0337 261° West  Level FlightAware Approximate
07:47AM 53.5881 -45.2203 260° West  Level FlightAware Approximate
07:48AM 53.5690 -45.4068 260° West  Level FlightAware Approximate
07:49AM 53.5496 -45.5932 260° West  Level FlightAware Approximate
07:50AM 53.5300 -45.7793 260° West  Level FlightAware Approximate
07:51AM 53.5100 -45.9653 260° West  Level FlightAware Approximate
07:52AM 53.4897 -46.1511 260° West  Level FlightAware Approximate
07:53AM 53.4692 -46.3368 260° West  Level FlightAware Approximate
07:54AM 53.4484 -46.5222 259° West  Level FlightAware Approximate
07:55AM 53.4273 -46.7075 259° West  Level FlightAware Approximate
07:56AM 53.4059 -46.8926 259° West  Level FlightAware Approximate
07:57AM 53.3842 -47.0774 259° West  Level FlightAware Approximate
07:58AM 53.3622 -47.2621 259° West  Level FlightAware Approximate
07:59AM 53.3400 -47.4467 259° West  Level FlightAware Approximate
08:00AM 53.3174 -47.6310 259° West  Level FlightAware Approximate
08:01AM 53.2946 -47.8151 258° West  Level FlightAware Approximate
08:02AM 53.2715 -47.9990 258° West  Level FlightAware Approximate
08:03AM 53.2481 -48.1827 258° West  Level FlightAware Approximate
08:04AM 53.2244 -48.3663 258° West  Level FlightAware Approximate
08:05AM 53.2005 -48.5496 258° West  Level FlightAware Approximate
08:06AM 53.1762 -48.7327 258° West  Level FlightAware Approximate
08:07AM 53.1517 -48.9156 257° West  Level FlightAware Approximate
08:08AM 53.1269 -49.0983 257° West  Level FlightAware Approximate
08:09AM 53.1018 -49.2808 257° West  Level FlightAware Approximate
08:10AM 53.0765 -49.4630 257° West  Level FlightAware Approximate
08:11AM 53.0509 -49.6451 257° West  Level FlightAware Approximate
08:12AM 53.0249 -49.8269 257° West  Level FlightAware Approximate
08:13AM 52.9981 -50.0082 249° West  Level FlightAware Approximate
08:14AM 52.9570 -50.1819 249° West  Level FlightAware Approximate
08:15AM 52.9157 -50.3553 248° West  Level FlightAware Approximate
08:15AM 52.9333 -50.0667 248° West 420 483 36,000  Level Gander Center
08:16AM 52.8741 -50.5283 248° West  Level FlightAware Approximate
08:16AM 52.9000 -50.2833 256° West 420 483 36,000  Level Gander Center
08:17AM 52.8322 -50.7010 248° West  Level FlightAware Approximate
08:17AM 52.8667 -50.4500 252° West 410 472 36,000  Level Gander Center
08:18AM 52.7901 -50.8733 248° West  Level FlightAware Approximate
08:18AM 52.8333 -50.6333 253° West 430 495 36,000  Level Gander Center
08:19AM 52.7478 -51.0454 248° West  Level FlightAware Approximate
08:20AM 52.7052 -51.2171 248° West  Level FlightAware Approximate
08:20AM 52.7500 -50.9833 249° West 410 472 36,000  Level Gander Center
08:21AM 52.6624 -51.3884 248° West  Level FlightAware Approximate
08:21AM 52.7167 -51.1500 252° West 420 483 36,000  Level Gander Center
08:22AM 52.6833 -51.3333 253° West 410 472 36,000  Level Gander Center
08:23AM 52.6500 -51.5000 252° West 410 472 36,000  Level Gander Center
08:24AM 52.6167 -51.5667 231° Southwest 400 460 36,000  Level Gander Center
08:25AM 52.5833 -51.7667 255° West 400 460 36,000  Level Gander Center
08:25AM 52.5667 -51.8500 252° West 390 449 36,000  Level Gander Center
08:26AM 52.5167 -52.0333 246° West 400 460 36,000  Level Gander Center
08:27AM 52.4833 -52.1833 250° West 400 460 36,000  Level Gander Center
08:28AM 52.4500 -52.3833 255° West 400 460 36,000  Level Gander Center
08:29AM 52.4000 -52.5167 238° Southwest 400 460 36,000  Level Gander Center
08:30AM 52.3667 -52.7167 255° West 410 472 36,000  Level Gander Center
08:31AM 52.3667 -52.8167 270° West 410 472 36,000  Level Gander Center
08:31AM 52.3333 -52.9000 237° Southwest 420 483 36,000  Level Gander Center
08:32AM 52.3167 -53.0667 261° West 410 472 36,000  Level Gander Center
08:33AM 52.2833 -53.1500 237° Southwest 420 483 36,000  Level Gander Center
08:34AM 52.2500 -53.3500 255° West 420 483 36,000 120 Level Gander Center
08:34AM 52.2333 -53.4333 252° West 420 483 36,200 1,140 Climbing Gander Center
08:35AM 52.2000 -53.6333 255° West 410 472 37,800 900 Climbing Gander Center
08:36AM 52.1667 -53.8000 252° West 400 460 38,000 60 Climbing Gander Center
08:37AM 52.1333 -53.9667 252° West 390 449 38,000  Level Gander Center
08:38AM 52.1000 -54.1500 254° West 410 472 38,000  Level Gander Center
08:39AM 52.0833 -54.2333 252° West 410 472 38,000  Level Gander Center
08:40AM 52.0333 -54.4833 252° West 410 472 38,000  Level Gander Center
08:41AM 52.0167 -54.5667 252° West 410 472 38,000  Level Gander Center
08:41AM 51.9833 -54.6500 237° Southwest 420 483 38,000  Level Gander Center
08:42AM 51.9667 -54.8500 262° West 410 472 38,000  Level Gander Center
08:43AM 51.9500 -54.9333 252° West 420 483 38,000  Level Gander Center
08:44AM 51.9167 -55.1000 252° West 420 483 38,000  Level Gander Center
08:44AM 51.8833 -55.2167 245° Southwest 410 472 38,000  Level Gander Center
08:45AM 51.8667 -55.2667 242° Southwest 420 483 38,000  Level Gander Center
08:45AM 51.8500 -55.3833 257° West 410 472 38,000  Level Gander Center
08:46AM 51.8167 -55.5500 252° West 410 472 38,000  Level Gander Center
08:47AM 51.7500 -55.7167 237° Southwest 420 483 38,000  Level Gander Center
08:48AM 51.7000 -55.8833 244° Southwest 420 483 38,000  Level Gander Center
08:49AM 51.6500 -56.0500 244° Southwest 420 483 38,000  Level Gander Center
08:50AM 51.5833 -56.2167 237° Southwest 430 495 38,000  Level Gander Center
08:51AM 51.5333 -56.3833 244° Southwest 420 483 38,000  Level Gander Center
08:52AM 51.4833 -56.5500 244° Southwest 430 495 38,000  Level Gander Center
08:53AM 51.4500 -56.6333 237° Southwest 430 495 38,000  Level Gander Center
08:53AM 51.4167 -56.6833 223° Southwest 430 495 38,000  Level Moncton Center
08:54AM 51.3500 -56.8833 242° Southwest 430 495 38,000  Level Gander Center
08:55AM 51.3000 -57.0500 244° Southwest 420 483 38,000  Level Gander Center
08:56AM 51.2333 -57.2167 237° Southwest 430 495 38,000  Level Gander Center
08:57AM 51.1833 -57.3833 244° Southwest 420 483 38,000  Level Gander Center
08:58AM 51.1333 -57.5500 245° Southwest 420 483 38,000  Level Gander Center
08:59AM 51.0667 -57.7167 238° Southwest 420 483 38,000  Level Gander Center
09:00AM 51.0333 -57.7667 223° Southwest 420 483 38,000  Level Gander Center
09:01AM 50.9667 -57.9333 238° Southwest 420 483 38,000  Level Gander Center
09:01AM 50.9500 -58.0167 252° West 430 495 38,000  Level Gander Center
09:02AM 50.9000 -58.1833 245° Southwest 420 483 38,000  Level Gander Center
09:03AM 50.8333 -58.3500 238° Southwest 420 483 38,000  Level Gander Center
09:04AM 50.7667 -58.5000 235° Southwest 420 483 38,000  Level Gander Center
09:05AM 50.7167 -58.6667 245° Southwest 420 483 38,000  Level Gander Center
09:06AM 50.6500 -58.8333 238° Southwest 420 483 38,000  Level Gander Center
09:07AM 50.6000 -58.9833 242° Southwest 430 495 38,000  Level Gander Center
09:08AM 50.5333 -59.1500 238° Southwest 430 495 38,000  Level Gander Center
09:09AM 50.4667 -59.3167 238° Southwest 430 495 38,000  Level Gander Center
09:10AM 50.4000 -59.4667 235° Southwest 430 495 38,000  Level Gander Center
09:11AM 50.3500 -59.6333 245° Southwest 430 495 38,000  Level Gander Center
09:12AM 50.2833 -59.7833 235° Southwest 430 495 38,000  Level Gander Center
09:13AM 50.2167 -59.9500 238° Southwest 430 495 38,000  Level Gander Center
09:14AM 50.1667 -60.1000 243° Southwest 430 495 38,000  Level Gander Center
09:15AM 50.0833 -60.2667 232° Southwest 430 495 38,000  Level Gander Center
09:16AM 50.0333 -60.4167 243° Southwest 420 483 38,000  Level Gander Center
09:17AM 49.9667 -60.5500 232° Southwest 420 483 38,000  Level Gander Center
09:18AM 49.9000 -60.7333 241° Southwest 420 483 38,000  Level Gander Center
09:19AM 49.8333 -60.8667 232° Southwest 430 495 38,000  Level Gander Center
09:20AM 49.7667 -61.0500 241° Southwest 420 483 38,000  Level Gander Center
09:21AM 49.7167 -61.2000 243° Southwest 430 495 38,000  Level Gander Center
09:22AM 49.6500 -61.3667 238° Southwest 430 495 38,000  Level Gander Center
09:23AM 49.5833 -61.5167 236° Southwest 430 495 38,000  Level Gander Center
09:24AM 49.5167 -61.6667 236° Southwest 430 495 38,000  Level Gander Center
09:25AM 49.4500 -61.8167 236° Southwest 430 495 38,000  Level Gander Center
09:26AM 49.3833 -61.9833 238° Southwest 430 495 38,000  Level Gander Center
09:27AM 49.3167 -62.1333 236° Southwest 430 495 38,000  Level Gander Center
09:28AM 49.2667 -62.2833 243° Southwest 430 495 38,000  Level Gander Center
09:29AM 49.2000 -62.4333 236° Southwest 420 483 38,000  Level Gander Center
09:30AM 49.1333 -62.5667 233° Southwest 430 495 38,000  Level Gander Center
09:31AM 49.0500 -62.7167 230° Southwest 410 472 38,000  Level Gander Center
09:32AM 49.0000 -62.8667 243° Southwest 410 472 38,000  Level Gander Center
09:33AM 48.9333 -63.0167 236° Southwest 410 472 38,000  Level Gander Center
09:34AM 48.8667 -63.1667 236° Southwest 410 472 38,000  Level Gander Center
09:35AM 48.8167 -63.2833 237° Southwest 410 472 38,000  Level Gander Center
09:36AM 48.7500 -63.4333 236° Southwest 430 495 38,000  Level Moncton Center
09:36AM 48.7500 -63.4333 236° Southwest 420 483 38,000  Level Gander Center
09:37AM 48.6833 -63.5833 236° Southwest 420 483 38,000  Level Moncton Center
09:38AM 48.6167 -63.7333 236° Southwest 420 483 38,000  Level Moncton Center
09:39AM 48.5500 -63.8667 233° Southwest 420 483 38,000  Level Moncton Center
09:40AM 48.4667 -64.0167 230° Southwest 430 495 38,000  Level Moncton Center
09:41AM 48.4000 -64.1667 236° Southwest 430 495 38,000  Level Moncton Center
09:42AM 48.3333 -64.3167 236° Southwest 430 495 38,000  Level Moncton Center
09:43AM 48.2667 -64.4667 236° Southwest 430 495 38,000  Level Gander Center
09:44AM 48.2000 -64.6167 236° Southwest 430 495 38,000  Level Gander Center
09:45AM 48.1333 -64.7833 239° Southwest 430 495 38,000  Level Gander Center
09:46AM 48.0500 -64.9000 223° Southwest 430 495 38,000  Level Gander Center
09:47AM 48.0000 -65.0500 244° Southwest 430 495 38,000  Level Moncton Center
09:48AM 47.9333 -65.2000 236° Southwest 420 483 38,000  Level Moncton Center
09:49AM 47.8500 -65.3500 230° Southwest 420 483 38,000  Level Moncton Center
09:50AM 47.7833 -65.4667 230° Southwest 430 495 38,000  Level Moncton Center
09:51AM 47.7333 -65.6167 244° Southwest 430 495 38,000  Level Moncton Center
09:52AM 47.6333 -65.7667 225° Southwest 430 495 38,000  Level Moncton Center
09:53AM 47.5667 -65.9167 237° Southwest 430 495 38,000  Level Moncton Center
09:54AM 47.5000 -66.0500 234° Southwest 430 495 38,000  Level Moncton Center
09:55AM 47.4333 -66.1833 234° Southwest 430 495 38,000  Level Moncton Center
09:56AM 47.3667 -66.3500 239° Southwest 430 495 38,000  Level Moncton Center
09:57AM 47.3000 -66.4667 230° Southwest 430 495 38,000  Level Moncton Center
09:58AM 47.2167 -66.6167 231° Southwest 430 495 38,000  Level Moncton Center
09:59AM 47.1500 -66.7667 237° Southwest 430 495 38,000  Level Moncton Center
10:00AM 47.0833 -66.8833 230° Southwest 420 483 38,000  Level Moncton Center
10:00AM 47.0783 -66.9206 259° West 434 499 38,000  Level Boston Center
10:01AM 47.0097 -67.0553 233° Southwest 427 491 38,000  Level Boston Center
10:07AM 46.6140 -67.7860 233° Southwest 416 479 38,000  Level FlightAware
10:08AM 46.5650 -67.8780 232° Southwest 416 479 38,000  Level FlightAware
10:08AM 46.4950 -68.0130 233° Southwest 38,000  Level FlightAware
10:09AM 46.4480 -68.1010 232° Southwest 413 475 38,000  Level FlightAware
10:10AM 46.3960 -68.2000 233° Southwest 410 472 38,000  Level FlightAware
10:10AM 46.3560 -68.2760 233° Southwest 410 472 38,000  Level FlightAware
10:11AM 46.2990 -68.3830 232° Southwest 407 468 38,000  Level FlightAware
10:12AM 46.2530 -68.4690 232° Southwest 405 466 38,000  Level FlightAware
10:13AM 46.2080 -68.5530 232° Southwest 404 465 38,000  Level FlightAware
10:13AM 46.1620 -68.6380 232° Southwest 403 464 38,000  Level FlightAware
10:14AM 46.1110 -68.7330 232° Southwest 403 464 38,000  Level FlightAware
10:15AM 46.0660 -68.8170 232° Southwest 401 461 38,000  Level FlightAware
10:15AM 46.0150 -68.9120 232° Southwest 399 459 38,000  Level FlightAware
10:16AM 45.9700 -68.9940 232° Southwest 398 458 38,000  Level FlightAware
10:17AM 45.9190 -69.0880 232° Southwest 397 457 38,000  Level FlightAware
10:18AM 45.8740 -69.1710 232° Southwest 398 458 38,000  Level FlightAware
10:18AM 45.8290 -69.2530 232° Southwest 401 461 38,000  Level FlightAware
10:19AM 45.7770 -69.3470 232° Southwest 400 460 38,000  Level FlightAware
10:20AM 45.7320 -69.4300 232° Southwest 399 459 38,000  Level FlightAware
10:20AM 45.6860 -69.5120 231° Southwest 400 460 38,000  Level FlightAware
10:21AM 45.6350 -69.6050 232° Southwest 398 458 38,000  Level FlightAware
10:22AM 45.5900 -69.6870 232° Southwest 397 457 38,000  Level FlightAware
10:22AM 45.5390 -69.7780 231° Southwest 395 455 38,000  Level FlightAware
10:23AM 45.4940 -69.8590 232° Southwest 394 453 38,000  Level FlightAware
10:24AM 45.4480 -69.9400 231° Southwest 393 452 38,000  Level FlightAware
10:25AM 45.3980 -70.0310 232° Southwest 391 450 38,000  Level FlightAware
10:25AM 45.3530 -70.1100 231° Southwest 389 448 38,000  Level FlightAware
10:26AM 45.3080 -70.1890 231° Southwest 388 447 38,000  Level FlightAware
10:27AM 45.2580 -70.2780 231° Southwest 386 444 38,000  Level FlightAware
10:27AM 45.2130 -70.3560 231° Southwest 385 443 38,000  Level FlightAware
10:28AM 45.1630 -70.4440 231° Southwest 384 442 38,000  Level FlightAware
10:29AM 45.1190 -70.5210 231° Southwest 383 441 38,000  Level FlightAware
10:29AM 45.0740 -70.5990 231° Southwest 383 441 38,000  Level FlightAware
10:30AM 45.0250 -70.6840 231° Southwest 382 440 38,000  Level FlightAware
10:31AM 44.9800 -70.7620 231° Southwest 383 441 38,000  Level FlightAware
10:32AM 44.9300 -70.8490 231° Southwest 382 440 38,000  Level FlightAware
10:32AM 44.8790 -70.9360 230° Southwest 383 441 38,000  Level FlightAware
10:33AM 44.8340 -71.0120 230° Southwest 385 443 38,000  Level FlightAware
10:34AM 44.7900 -71.0870 230° Southwest 386 444 38,000  Level FlightAware
10:34AM 44.7410 -71.1700 230° Southwest 385 443 38,000  Level FlightAware
10:35AM 44.6930 -71.2510 230° Southwest 386 444 38,000  Level FlightAware
10:36AM 44.6420 -71.3370 230° Southwest 386 444 38,000  Level FlightAware
10:36AM 44.5970 -71.4120 230° Southwest 388 447 38,000  Level FlightAware
10:37AM 44.5500 -71.4910 230° Southwest 391 450 38,000  Level FlightAware
10:38AM 44.4970 -71.5790 230° Southwest 393 452 38,000  Level FlightAware
10:39AM 44.4490 -71.6570 229° Southwest 396 456 38,000  Level FlightAware
10:39AM 44.3960 -71.7450 230° Southwest 397 457 38,000  Level FlightAware
10:40AM 44.3530 -71.8160 230° Southwest 397 457 38,000  Level FlightAware
10:41AM 44.3020 -71.8990 229° Southwest 397 457 38,000  Level FlightAware
10:41AM 44.2460 -71.9910 230° Southwest 395 455 38,000  Level FlightAware
10:42AM 44.2000 -72.0660 229° Southwest 391 450 38,000  Level FlightAware
10:43AM 44.1540 -72.1400 229° Southwest 389 448 38,000  Level FlightAware
10:43AM 44.1030 -72.2220 229° Southwest 385 443 38,000  Level FlightAware
10:44AM 44.0550 -72.3000 229° Southwest 386 444 38,000  Level FlightAware
10:45AM 44.0000 -72.3870 229° Southwest 384 442 38,000  Level FlightAware
10:46AM 43.9540 -72.4600 229° Southwest 383 441 38,000  Level FlightAware
10:46AM 43.9080 -72.5340 229° Southwest 377 434 38,000  Level FlightAware
10:47AM 43.8580 -72.6130 229° Southwest 372 428 38,000  Level FlightAware
10:48AM 43.8130 -72.6840 229° Southwest 367 422 38,000  Level FlightAware
10:48AM 43.7680 -72.7540 228° Southwest 364 419 38,000  Level FlightAware
10:49AM 43.7170 -72.8340 229° Southwest 364 419 38,000  Level FlightAware
10:50AM 43.6740 -72.9010 228° Southwest 361 415 38,000  Level FlightAware
10:50AM 43.6220 -72.9810 228° Southwest 361 415 38,000 -180 Level FlightAware
10:51AM 43.5780 -73.0490 228° Southwest 359 413 37,800 -1,320 Descending FlightAware
10:52AM 43.5350 -73.1160 228° Southwest 364 419 36,300 -2,400 Descending FlightAware
10:53AM 43.4870 -73.1890 228° Southwest 371 427 34,400 -2,760 Descending FlightAware
10:53AM 43.4360 -73.2680 228° Southwest 378 435 32,400 -2,220 Descending FlightAware
10:54AM 43.3760 -73.3600 228° Southwest 381 438 30,900 -2,640 Descending FlightAware
10:55AM 43.3380 -73.4180 228° Southwest 380 437 28,500 -2,220 Descending FlightAware
10:56AM 43.2480 -73.5540 228° Southwest 364 419 26,700 -900 Descending FlightAware
10:57AM 43.2100 -73.6120 228° Southwest 364 419 26,700  Level FlightAware
10:57AM 43.1720 -73.6700 228° Southwest 364 419 26,700  Level FlightAware
10:58AM 43.1330 -73.7290 228° Southwest 364 419 26,700  Level FlightAware
10:59AM 43.0950 -73.7870 228° Southwest 364 419 26,700  Level FlightAware
10:59AM 43.0570 -73.8450 228° Southwest 364 419 26,700 -5,400 Level FlightAware
11:00AM 42.8511 -73.7628 228° Southwest 384 442 18,500 -5,580 Descending Boston Center
11:01AM 42.7569 -73.8031 197° South 372 428 16,300 -1,260 Descending Boston Center
11:02AM 42.6628 -73.8433 197° South 365 420 16,000 -180 Descending Boston Center
11:03AM 42.5578 -73.8889 198° South 365 420 16,000  Level Boston Center
11:04AM 42.4614 -73.9317 198° South 366 421 16,000 -60 Level Boston Center
11:05AM 42.3672 -73.9744 199° South 366 421 15,900 -60 Descending Boston Center
11:06AM 42.2728 -74.0142 197° South 366 421 15,900  Level Boston Center
11:07AM 42.1783 -74.0567 198° South 360 414 15,900 -780 Level Boston Center
11:13AM 41.6540 -74.2840 198° South 342 394 11,000 -840 Descending FlightAware
11:14AM 41.5720 -74.3180 197° South 316 364 10,500 -300 Descending FlightAware
11:14AM 41.5240 -74.3370 197° South 316 364 10,500  Level FlightAware
11:15AM 41.4650 -74.3620 198° South 316 364 10,500 -900 Level FlightAware
11:20AM 41.1020 -74.3150 174° South 290 334 5,200 -1,080 Descending FlightAware
11:20AM 41.0910 -74.3050 146° Southeast 290 334 5,100 -180 Descending FlightAware
11:21AM 41.0550 -74.2710 145° Southeast 288 331 5,100  Level FlightAware
11:21AM 41.0336 -74.2518 146° Southeast 288 331 5,100 -360 Level FlightAware ADS-B
11:22AM 41.0099 -74.2300 145° Southeast 292 336 4,900 -780 Descending FlightAware ADS-B
11:22AM 40.9807 -74.2029 145° Southeast 292 336 4,500 -720 Descending FlightAware ADS-B
11:22AM 40.9632 -74.1866 145° Southeast 284 327 4,400 -540 Descending FlightAware ADS-B
11:23AM 40.9424 -74.1675 145° Southeast 277 319 4,200 -540 Descending FlightAware ADS-B
11:23AM 40.9261 -74.1522 145° Southeast 273 314 4,100 -240 Descending FlightAware ADS-B
11:23AM 40.9100 -74.1373 145° Southeast 268 308 4,100  Level FlightAware ADS-B
11:23AM 40.8945 -74.1229 145° Southeast 260 299 4,100  Level FlightAware ADS-B
11:24AM 40.8786 -74.1082 145° Southeast 256 295 4,100 -420 Level FlightAware ADS-B
11:24AM 40.8664 -74.0990 150° Southeast 249 287 3,900 -1,140 Descending FlightAware ADS-B
11:24AM 40.8617 -74.0972 164° South 246 283 3,800 -1,200 Descending FlightAware ADS-B
11:24AM 40.8549 -74.0953 168° South 242 278 3,700 -720 Descending FlightAware ADS-B
11:24AM 40.8436 -74.0934 173° South 236 272 3,600 -780 Descending FlightAware ADS-B
11:25AM 40.8298 -74.0913 173° South 226 260 3,400 -900 Descending FlightAware ADS-B
11:25AM 40.8142 -74.0889 173° South 218 251 3,200 -660 Descending FlightAware ADS-B
11:25AM 40.8013 -74.0870 174° South 210 242 3,100 -420 Descending FlightAware ADS-B
11:25AM 40.7981 -74.0867 176° South 207 238 3,100 -780 Level FlightAware ADS-B
11:25AM 40.7936 -74.0872 185° South 201 231 3,000 -900 Descending FlightAware ADS-B
11:25AM 40.7758 -74.0970 203° Southwest 198 228 2,700 -840 Descending FlightAware ADS-B
11:26AM 40.7703 -74.1002 204° Southwest 186 214 2,600 -1,200 Descending FlightAware ADS-B
11:26AM 40.7641 -74.1038 204° Southwest 183 211 2,400 -1,860 Descending FlightAware ADS-B
11:26AM 40.7533 -74.1112 207° Southwest 179 206 1,900 -1,920 Descending FlightAware ADS-B
11:26AM 40.7478 -74.1148 206° Southwest 178 205 1,700 -1,080 Descending FlightAware ADS-B
11:26AM 40.7366 -74.1219 206° Southwest 171 197 1,500 -840 Descending FlightAware ADS-B
11:27AM 40.7272 -74.1279 206° Southwest 149 171 1,300 -780 Descending FlightAware ADS-B
11:27AM 40.7172 -74.1346 207° Southwest 139 160 1,100 -900 Descending FlightAware ADS-B
11:27AM 40.7078 -74.1404 205° Southwest 139 160 800 -360 Descending FlightAware ADS-B
11:28AM 40.6920 -74.1500 205° Southwest 134 154 800  Level FlightAware